sensor_id;sensor_type;location;lat;lon;timestamp;P1;durP1;ratioP1;P2;durP2;ratioP2
73266;SDS011;61495;53.400;7.608;2022-07-29T00:01:33;4.45;;;2.10;;
73266;SDS011;61495;53.400;7.608;2022-07-29T00:03:58;2.60;;;1.30;;
73266;SDS011;61495;53.400;7.608;2022-07-29T00:06:23;3.65;;;1.83;;
73266;SDS011;61495;53.400;7.608;2022-07-29T00:08:49;4.35;;;1.58;;
73266;SDS011;61495;53.400;7.608;2022-07-29T00:11:14;3.15;;;1.50;;
73266;SDS011;61495;53.400;7.608;2022-07-29T00:13:39;2.70;;;1.42;;
73266;SDS011;61495;53.400;7.608;2022-07-29T00:16:05;3.53;;;1.60;;
73266;SDS011;61495;53.400;7.608;2022-07-29T00:18:31;3.38;;;1.25;;
73266;SDS011;61495;53.400;7.608;2022-07-29T00:20:56;3.63;;;1.30;;
73266;SDS011;61495;53.400;7.608;2022-07-29T00:23:22;3.20;;;1.20;;
73266;SDS011;61495;53.400;7.608;2022-07-29T00:25:47;4.93;;;2.00;;
73266;SDS011;61495;53.400;7.608;2022-07-29T00:28:12;4.35;;;1.33;;
73266;SDS011;61495;53.400;7.608;2022-07-29T00:30:38;3.35;;;1.27;;
73266;SDS011;61495;53.400;7.608;2022-07-29T00:33:03;2.78;;;1.02;;
73266;SDS011;61495;53.400;7.608;2022-07-29T00:35:28;5.10;;;1.27;;
73266;SDS011;61495;53.400;7.608;2022-07-29T00:38:10;3.00;;;1.70;;
73266;SDS011;61495;53.400;7.608;2022-07-29T00:40:39;4.07;;;1.20;;
73266;SDS011;61495;53.400;7.608;2022-07-29T00:43:05;3.70;;;1.60;;
73266;SDS011;61495;53.400;7.608;2022-07-29T00:45:31;4.45;;;1.83;;
73266;SDS011;61495;53.400;7.608;2022-07-29T00:47:56;2.80;;;1.20;;
73266;SDS011;61495;53.400;7.608;2022-07-29T00:50:22;4.13;;;1.50;;
73266;SDS011;61495;53.400;7.608;2022-07-29T00:52:48;3.38;;;1.65;;
73266;SDS011;61495;53.400;7.608;2022-07-29T00:55:14;3.75;;;1.48;;
73266;SDS011;61495;53.400;7.608;2022-07-29T00:57:41;4.45;;;1.60;;
73266;SDS011;61495;53.400;7.608;2022-07-29T01:00:08;3.00;;;1.70;;
73266;SDS011;61495;53.400;7.608;2022-07-29T01:02:36;6.10;;;1.77;;
73266;SDS011;61495;53.400;7.608;2022-07-29T01:05:02;3.13;;;1.33;;
73266;SDS011;61495;53.400;7.608;2022-07-29T01:07:29;4.80;;;1.75;;
73266;SDS011;61495;53.400;7.608;2022-07-29T01:09:56;3.80;;;1.40;;
73266;SDS011;61495;53.400;7.608;2022-07-29T01:12:26;3.20;;;1.58;;
73266;SDS011;61495;53.400;7.608;2022-07-29T01:14:53;5.53;;;1.98;;
73266;SDS011;61495;53.400;7.608;2022-07-29T01:17:21;3.50;;;1.48;;
73266;SDS011;61495;53.400;7.608;2022-07-29T01:25:12;4.00;;;1.63;;
73266;SDS011;61495;53.400;7.608;2022-07-29T01:30:30;4.45;;;1.85;;
73266;SDS011;61495;53.400;7.608;2022-07-29T01:33:06;2.70;;;1.00;;
73266;SDS011;61495;53.400;7.608;2022-07-29T01:35:43;3.08;;;1.42;;
73266;SDS011;61495;53.400;7.608;2022-07-29T01:38:13;6.68;;;1.60;;
73266;SDS011;61495;53.400;7.608;2022-07-29T01:40:49;3.10;;;1.60;;
73266;SDS011;61495;53.400;7.608;2022-07-29T01:43:19;4.60;;;1.48;;
73266;SDS011;61495;53.400;7.608;2022-07-29T01:45:50;3.35;;;1.55;;
73266;SDS011;61495;53.400;7.608;2022-07-29T01:56:00;3.40;;;1.70;;
73266;SDS011;61495;53.400;7.608;2022-07-29T01:58:27;2.83;;;1.35;;
73266;SDS011;61495;53.400;7.608;2022-07-29T02:00:56;3.63;;;1.40;;
73266;SDS011;61495;53.400;7.608;2022-07-29T02:03:23;3.90;;;1.33;;
73266;SDS011;61495;53.400;7.608;2022-07-29T02:05:51;3.05;;;0.90;;
73266;SDS011;61495;53.400;7.608;2022-07-29T02:08:17;4.60;;;1.42;;
73266;SDS011;61495;53.400;7.608;2022-07-29T02:10:45;3.13;;;1.10;;
73266;SDS011;61495;53.400;7.608;2022-07-29T02:13:13;2.47;;;1.17;;
73266;SDS011;61495;53.400;7.608;2022-07-29T02:15:42;2.80;;;1.20;;
73266;SDS011;61495;53.400;7.608;2022-07-29T02:18:18;4.82;;;1.42;;
73266;SDS011;61495;53.400;7.608;2022-07-29T02:20:48;4.60;;;1.70;;
73266;SDS011;61495;53.400;7.608;2022-07-29T02:23:19;2.45;;;1.27;;
73266;SDS011;61495;53.400;7.608;2022-07-29T02:25:47;4.40;;;1.33;;
73266;SDS011;61495;53.400;7.608;2022-07-29T02:28:16;3.88;;;1.33;;
73266;SDS011;61495;53.400;7.608;2022-07-29T02:30:43;3.90;;;1.25;;
73266;SDS011;61495;53.400;7.608;2022-07-29T02:33:12;4.15;;;1.42;;
73266;SDS011;61495;53.400;7.608;2022-07-29T02:35:39;3.75;;;1.52;;
73266;SDS011;61495;53.400;7.608;2022-07-29T02:38:07;3.42;;;1.60;;
73266;SDS011;61495;53.400;7.608;2022-07-29T02:40:52;4.40;;;1.65;;
73266;SDS011;61495;53.400;7.608;2022-07-29T02:43:19;5.88;;;2.20;;
73266;SDS011;61495;53.400;7.608;2022-07-29T02:45:47;2.90;;;1.30;;
73266;SDS011;61495;53.400;7.608;2022-07-29T02:48:18;4.63;;;1.23;;
73266;SDS011;61495;53.400;7.608;2022-07-29T02:50:51;3.95;;;1.25;;
73266;SDS011;61495;53.400;7.608;2022-07-29T02:53:26;3.33;;;1.23;;
73266;SDS011;61495;53.400;7.608;2022-07-29T02:56:01;3.50;;;1.70;;
73266;SDS011;61495;53.400;7.608;2022-07-29T02:58:33;2.90;;;1.30;;
73266;SDS011;61495;53.400;7.608;2022-07-29T03:01:03;3.63;;;1.42;;
73266;SDS011;61495;53.400;7.608;2022-07-29T03:03:37;3.85;;;1.13;;
73266;SDS011;61495;53.400;7.608;2022-07-29T03:06:04;3.70;;;1.20;;
73266;SDS011;61495;53.400;7.608;2022-07-29T03:08:32;3.22;;;1.50;;
73266;SDS011;61495;53.400;7.608;2022-07-29T03:10:59;4.25;;;1.67;;
73266;SDS011;61495;53.400;7.608;2022-07-29T03:13:26;2.90;;;1.42;;
73266;SDS011;61495;53.400;7.608;2022-07-29T03:15:53;4.60;;;1.98;;
73266;SDS011;61495;53.400;7.608;2022-07-29T03:18:19;3.40;;;1.73;;
73266;SDS011;61495;53.400;7.608;2022-07-29T03:20:44;4.47;;;1.60;;
73266;SDS011;61495;53.400;7.608;2022-07-29T03:23:10;3.50;;;1.50;;
73266;SDS011;61495;53.400;7.608;2022-07-29T03:25:36;3.92;;;1.48;;
73266;SDS011;61495;53.400;7.608;2022-07-29T03:28:01;3.70;;;1.35;;
73266;SDS011;61495;53.400;7.608;2022-07-29T03:30:27;3.38;;;1.77;;
73266;SDS011;61495;53.400;7.608;2022-07-29T03:32:55;3.72;;;1.23;;
73266;SDS011;61495;53.400;7.608;2022-07-29T03:35:21;3.00;;;1.35;;
73266;SDS011;61495;53.400;7.608;2022-07-29T03:37:46;3.80;;;1.63;;
73266;SDS011;61495;53.400;7.608;2022-07-29T03:40:13;3.65;;;1.80;;
73266;SDS011;61495;53.400;7.608;2022-07-29T03:42:43;5.38;;;1.70;;
73266;SDS011;61495;53.400;7.608;2022-07-29T03:45:12;6.18;;;2.42;;
73266;SDS011;61495;53.400;7.608;2022-07-29T03:47:42;4.20;;;1.58;;
73266;SDS011;61495;53.400;7.608;2022-07-29T03:50:12;2.72;;;1.05;;
73266;SDS011;61495;53.400;7.608;2022-07-29T03:52:40;3.20;;;1.77;;
73266;SDS011;61495;53.400;7.608;2022-07-29T03:55:06;5.47;;;1.52;;
73266;SDS011;61495;53.400;7.608;2022-07-29T03:57:33;3.45;;;1.40;;
73266;SDS011;61495;53.400;7.608;2022-07-29T04:00:00;4.18;;;1.40;;
73266;SDS011;61495;53.400;7.608;2022-07-29T04:02:26;3.97;;;1.50;;
73266;SDS011;61495;53.400;7.608;2022-07-29T04:04:52;3.97;;;1.80;;
73266;SDS011;61495;53.400;7.608;2022-07-29T04:07:18;4.03;;;1.85;;
73266;SDS011;61495;53.400;7.608;2022-07-29T04:09:43;3.80;;;1.90;;
73266;SDS011;61495;53.400;7.608;2022-07-29T04:12:09;4.07;;;1.40;;
73266;SDS011;61495;53.400;7.608;2022-07-29T04:14:35;3.80;;;1.52;;
73266;SDS011;61495;53.400;7.608;2022-07-29T04:17:01;4.28;;;1.40;;
73266;SDS011;61495;53.400;7.608;2022-07-29T04:19:28;3.72;;;1.50;;
73266;SDS011;61495;53.400;7.608;2022-07-29T04:21:54;3.60;;;1.38;;
73266;SDS011;61495;53.400;7.608;2022-07-29T04:24:19;5.30;;;1.55;;
73266;SDS011;61495;53.400;7.608;2022-07-29T04:26:45;4.93;;;2.03;;
73266;SDS011;61495;53.400;7.608;2022-07-29T04:29:11;2.90;;;1.50;;
73266;SDS011;61495;53.400;7.608;2022-07-29T04:31:39;4.07;;;1.67;;
73266;SDS011;61495;53.400;7.608;2022-07-29T04:34:05;4.65;;;1.55;;
73266;SDS011;61495;53.400;7.608;2022-07-29T04:36:30;4.47;;;1.30;;
73266;SDS011;61495;53.400;7.608;2022-07-29T04:38:55;3.72;;;1.42;;
73266;SDS011;61495;53.400;7.608;2022-07-29T04:41:21;5.35;;;1.75;;
73266;SDS011;61495;53.400;7.608;2022-07-29T04:43:46;3.13;;;1.20;;
73266;SDS011;61495;53.400;7.608;2022-07-29T04:46:11;2.80;;;1.40;;
73266;SDS011;61495;53.400;7.608;2022-07-29T04:48:37;4.57;;;1.50;;
73266;SDS011;61495;53.400;7.608;2022-07-29T04:51:02;6.40;;;1.60;;
73266;SDS011;61495;53.400;7.608;2022-07-29T04:53:28;5.15;;;1.90;;
73266;SDS011;61495;53.400;7.608;2022-07-29T04:55:53;3.75;;;1.30;;
73266;SDS011;61495;53.400;7.608;2022-07-29T04:58:19;3.83;;;1.40;;
73266;SDS011;61495;53.400;7.608;2022-07-29T05:00:44;3.10;;;1.30;;
73266;SDS011;61495;53.400;7.608;2022-07-29T05:03:10;3.58;;;1.80;;
73266;SDS011;61495;53.400;7.608;2022-07-29T05:05:35;3.08;;;1.20;;
73266;SDS011;61495;53.400;7.608;2022-07-29T05:08:00;3.40;;;1.70;;
73266;SDS011;61495;53.400;7.608;2022-07-29T05:10:26;3.90;;;1.30;;
73266;SDS011;61495;53.400;7.608;2022-07-29T05:12:51;4.05;;;1.45;;
73266;SDS011;61495;53.400;7.608;2022-07-29T05:15:17;4.45;;;1.90;;
73266;SDS011;61495;53.400;7.608;2022-07-29T05:17:43;5.35;;;1.73;;
73266;SDS011;61495;53.400;7.608;2022-07-29T05:20:09;4.05;;;1.95;;
73266;SDS011;61495;53.400;7.608;2022-07-29T05:22:38;6.78;;;1.55;;
73266;SDS011;61495;53.400;7.608;2022-07-29T05:25:03;6.18;;;1.52;;
73266;SDS011;61495;53.400;7.608;2022-07-29T05:27:29;3.55;;;1.40;;
73266;SDS011;61495;53.400;7.608;2022-07-29T05:29:54;5.05;;;1.70;;
73266;SDS011;61495;53.400;7.608;2022-07-29T05:32:20;5.55;;;1.50;;
73266;SDS011;61495;53.400;7.608;2022-07-29T05:34:45;5.10;;;1.90;;
73266;SDS011;61495;53.400;7.608;2022-07-29T05:37:10;4.57;;;1.55;;
73266;SDS011;61495;53.400;7.608;2022-07-29T05:39:38;4.13;;;1.20;;
73266;SDS011;61495;53.400;7.608;2022-07-29T05:42:07;3.58;;;1.40;;
73266;SDS011;61495;53.400;7.608;2022-07-29T05:44:35;4.82;;;1.83;;
73266;SDS011;61495;53.400;7.608;2022-07-29T05:47:01;4.78;;;1.30;;
73266;SDS011;61495;53.400;7.608;2022-07-29T05:49:27;4.60;;;1.65;;
73266;SDS011;61495;53.400;7.608;2022-07-29T05:51:52;4.88;;;1.77;;
73266;SDS011;61495;53.400;7.608;2022-07-29T05:54:17;6.70;;;1.90;;
73266;SDS011;61495;53.400;7.608;2022-07-29T05:56:43;4.55;;;2.13;;
73266;SDS011;61495;53.400;7.608;2022-07-29T05:59:08;3.85;;;2.08;;
73266;SDS011;61495;53.400;7.608;2022-07-29T06:01:33;4.20;;;1.83;;
73266;SDS011;61495;53.400;7.608;2022-07-29T06:03:59;6.15;;;2.00;;
73266;SDS011;61495;53.400;7.608;2022-07-29T06:06:24;3.88;;;1.45;;
73266;SDS011;61495;53.400;7.608;2022-07-29T06:08:50;5.13;;;1.95;;
73266;SDS011;61495;53.400;7.608;2022-07-29T06:11:15;7.10;;;1.73;;
73266;SDS011;61495;53.400;7.608;2022-07-29T06:13:40;4.38;;;1.65;;
73266;SDS011;61495;53.400;7.608;2022-07-29T06:16:06;5.90;;;2.30;;
73266;SDS011;61495;53.400;7.608;2022-07-29T06:18:32;5.13;;;1.70;;
73266;SDS011;61495;53.400;7.608;2022-07-29T06:20:57;4.43;;;2.53;;
73266;SDS011;61495;53.400;7.608;2022-07-29T06:23:22;7.80;;;1.85;;
73266;SDS011;61495;53.400;7.608;2022-07-29T06:25:48;4.35;;;2.08;;
73266;SDS011;61495;53.400;7.608;2022-07-29T06:28:13;5.15;;;1.83;;
73266;SDS011;61495;53.400;7.608;2022-07-29T06:30:39;5.85;;;1.77;;
73266;SDS011;61495;53.400;7.608;2022-07-29T06:33:04;3.53;;;1.98;;
73266;SDS011;61495;53.400;7.608;2022-07-29T06:35:30;4.70;;;1.83;;
73266;SDS011;61495;53.400;7.608;2022-07-29T06:37:57;5.00;;;1.65;;
73266;SDS011;61495;53.400;7.608;2022-07-29T06:40:23;3.60;;;1.85;;
73266;SDS011;61495;53.400;7.608;2022-07-29T06:43:07;6.32;;;1.90;;
73266;SDS011;61495;53.400;7.608;2022-07-29T06:45:36;4.35;;;1.63;;
73266;SDS011;61495;53.400;7.608;2022-07-29T06:48:01;6.03;;;1.92;;
73266;SDS011;61495;53.400;7.608;2022-07-29T06:50:27;5.28;;;1.70;;
73266;SDS011;61495;53.400;7.608;2022-07-29T06:52:52;4.22;;;1.77;;
73266;SDS011;61495;53.400;7.608;2022-07-29T06:55:17;3.67;;;1.35;;
73266;SDS011;61495;53.400;7.608;2022-07-29T06:57:44;3.75;;;2.03;;
73266;SDS011;61495;53.400;7.608;2022-07-29T07:00:10;5.38;;;2.00;;
73266;SDS011;61495;53.400;7.608;2022-07-29T07:02:36;4.22;;;2.10;;
73266;SDS011;61495;53.400;7.608;2022-07-29T07:05:02;4.68;;;2.45;;
73266;SDS011;61495;53.400;7.608;2022-07-29T07:07:27;4.57;;;1.65;;
73266;SDS011;61495;53.400;7.608;2022-07-29T07:09:53;4.88;;;2.75;;
73266;SDS011;61495;53.400;7.608;2022-07-29T07:12:18;5.00;;;1.98;;
73266;SDS011;61495;53.400;7.608;2022-07-29T07:14:43;5.32;;;1.75;;
73266;SDS011;61495;53.400;7.608;2022-07-29T07:17:09;6.25;;;2.00;;
73266;SDS011;61495;53.400;7.608;2022-07-29T07:19:34;6.18;;;2.83;;
73266;SDS011;61495;53.400;7.608;2022-07-29T07:22:00;5.57;;;2.10;;
73266;SDS011;61495;53.400;7.608;2022-07-29T07:24:25;3.78;;;2.00;;
73266;SDS011;61495;53.400;7.608;2022-07-29T07:26:51;5.32;;;1.75;;
73266;SDS011;61495;53.400;7.608;2022-07-29T07:29:16;5.00;;;2.03;;
73266;SDS011;61495;53.400;7.608;2022-07-29T07:31:42;5.22;;;2.63;;
73266;SDS011;61495;53.400;7.608;2022-07-29T07:34:07;4.85;;;1.92;;
73266;SDS011;61495;53.400;7.608;2022-07-29T07:36:33;6.13;;;2.40;;
73266;SDS011;61495;53.400;7.608;2022-07-29T07:38:59;4.93;;;2.15;;
73266;SDS011;61495;53.400;7.608;2022-07-29T07:41:24;5.00;;;1.80;;
73266;SDS011;61495;53.400;7.608;2022-07-29T07:43:50;5.35;;;1.83;;
73266;SDS011;61495;53.400;7.608;2022-07-29T07:46:15;3.97;;;1.58;;
73266;SDS011;61495;53.400;7.608;2022-07-29T07:48:41;6.55;;;1.88;;
73266;SDS011;61495;53.400;7.608;2022-07-29T07:51:06;4.68;;;2.25;;
73266;SDS011;61495;53.400;7.608;2022-07-29T07:53:32;7.32;;;1.98;;
73266;SDS011;61495;53.400;7.608;2022-07-29T07:55:58;5.15;;;1.80;;
73266;SDS011;61495;53.400;7.608;2022-07-29T07:58:23;4.57;;;2.38;;
73266;SDS011;61495;53.400;7.608;2022-07-29T08:00:49;4.25;;;2.00;;
73266;SDS011;61495;53.400;7.608;2022-07-29T08:03:14;7.13;;;2.42;;
73266;SDS011;61495;53.400;7.608;2022-07-29T08:05:40;7.38;;;2.20;;
73266;SDS011;61495;53.400;7.608;2022-07-29T08:08:05;5.90;;;2.05;;
73266;SDS011;61495;53.400;7.608;2022-07-29T08:10:32;6.07;;;2.10;;
73266;SDS011;61495;53.400;7.608;2022-07-29T08:13:16;4.22;;;1.80;;
73266;SDS011;61495;53.400;7.608;2022-07-29T08:15:41;7.35;;;2.20;;
73266;SDS011;61495;53.400;7.608;2022-07-29T08:18:09;5.68;;;1.88;;
73266;SDS011;61495;53.400;7.608;2022-07-29T08:20:35;6.35;;;2.10;;
73266;SDS011;61495;53.400;7.608;2022-07-29T08:23:03;6.07;;;2.20;;
73266;SDS011;61495;53.400;7.608;2022-07-29T08:25:29;4.80;;;1.95;;
73266;SDS011;61495;53.400;7.608;2022-07-29T08:27:55;6.25;;;2.05;;
73266;SDS011;61495;53.400;7.608;2022-07-29T08:30:20;5.75;;;2.03;;
73266;SDS011;61495;53.400;7.608;2022-07-29T08:32:47;4.72;;;2.05;;
73266;SDS011;61495;53.400;7.608;2022-07-29T08:35:13;3.67;;;1.92;;
73266;SDS011;61495;53.400;7.608;2022-07-29T08:37:39;4.82;;;1.77;;
73266;SDS011;61495;53.400;7.608;2022-07-29T08:40:04;5.28;;;2.10;;
73266;SDS011;61495;53.400;7.608;2022-07-29T08:42:31;3.85;;;1.80;;
73266;SDS011;61495;53.400;7.608;2022-07-29T08:44:56;4.65;;;1.92;;
73266;SDS011;61495;53.400;7.608;2022-07-29T08:47:22;5.25;;;2.28;;
73266;SDS011;61495;53.400;7.608;2022-07-29T08:49:51;6.13;;;2.05;;
73266;SDS011;61495;53.400;7.608;2022-07-29T08:52:16;5.43;;;2.47;;
73266;SDS011;61495;53.400;7.608;2022-07-29T08:54:43;5.10;;;1.83;;
73266;SDS011;61495;53.400;7.608;2022-07-29T08:57:10;4.13;;;2.20;;
73266;SDS011;61495;53.400;7.608;2022-07-29T08:59:38;4.72;;;1.98;;
73266;SDS011;61495;53.400;7.608;2022-07-29T09:02:08;3.20;;;1.60;;
73266;SDS011;61495;53.400;7.608;2022-07-29T09:04:39;4.20;;;1.92;;
73266;SDS011;61495;53.400;7.608;2022-07-29T09:07:04;7.30;;;2.20;;
73266;SDS011;61495;53.400;7.608;2022-07-29T09:09:32;4.10;;;1.98;;
73266;SDS011;61495;53.400;7.608;2022-07-29T09:11:58;3.83;;;2.10;;
73266;SDS011;61495;53.400;7.608;2022-07-29T09:14:24;4.93;;;2.03;;
73266;SDS011;61495;53.400;7.608;2022-07-29T09:16:51;6.53;;;1.95;;
73266;SDS011;61495;53.400;7.608;2022-07-29T09:21:52;6.85;;;1.83;;
73266;SDS011;61495;53.400;7.608;2022-07-29T09:24:26;5.80;;;2.03;;
73266;SDS011;61495;53.400;7.608;2022-07-29T09:27:05;6.50;;;2.35;;
73266;SDS011;61495;53.400;7.608;2022-07-29T09:29:33;5.53;;;1.70;;
73266;SDS011;61495;53.400;7.608;2022-07-29T09:31:59;5.13;;;1.90;;
73266;SDS011;61495;53.400;7.608;2022-07-29T09:34:25;5.97;;;2.03;;
73266;SDS011;61495;53.400;7.608;2022-07-29T09:36:53;5.38;;;1.98;;
73266;SDS011;61495;53.400;7.608;2022-07-29T09:42:12;7.97;;;2.33;;
73266;SDS011;61495;53.400;7.608;2022-07-29T09:44:41;4.55;;;2.25;;
73266;SDS011;61495;53.400;7.608;2022-07-29T09:47:07;5.78;;;2.00;;
73266;SDS011;61495;53.400;7.608;2022-07-29T09:49:49;4.63;;;1.75;;
73266;SDS011;61495;53.400;7.608;2022-07-29T09:52:15;5.13;;;2.10;;
73266;SDS011;61495;53.400;7.608;2022-07-29T09:54:41;3.85;;;1.80;;
73266;SDS011;61495;53.400;7.608;2022-07-29T09:57:09;5.15;;;2.35;;
73266;SDS011;61495;53.400;7.608;2022-07-29T09:59:58;4.05;;;1.60;;
73266;SDS011;61495;53.400;7.608;2022-07-29T10:02:35;4.22;;;1.70;;
73266;SDS011;61495;53.400;7.608;2022-07-29T10:05:03;6.15;;;2.10;;
73266;SDS011;61495;53.400;7.608;2022-07-29T10:10:23;6.72;;;2.00;;
73266;SDS011;61495;53.400;7.608;2022-07-29T10:13:00;5.15;;;1.98;;
73266;SDS011;61495;53.400;7.608;2022-07-29T10:15:29;5.05;;;2.03;;
73266;SDS011;61495;53.400;7.608;2022-07-29T10:17:57;5.72;;;1.85;;
73266;SDS011;61495;53.400;7.608;2022-07-29T10:20:23;5.00;;;1.92;;
73266;SDS011;61495;53.400;7.608;2022-07-29T10:22:50;4.72;;;2.22;;
73266;SDS011;61495;53.400;7.608;2022-07-29T10:25:16;6.05;;;2.22;;
73266;SDS011;61495;53.400;7.608;2022-07-29T10:27:43;4.55;;;1.75;;
73266;SDS011;61495;53.400;7.608;2022-07-29T10:30:13;4.90;;;1.85;;
73266;SDS011;61495;53.400;7.608;2022-07-29T10:37:45;4.10;;;2.05;;
73266;SDS011;61495;53.400;7.608;2022-07-29T10:40:31;3.75;;;2.00;;
73266;SDS011;61495;53.400;7.608;2022-07-29T10:43:28;4.00;;;1.80;;
73266;SDS011;61495;53.400;7.608;2022-07-29T10:48:24;4.78;;;2.00;;
73266;SDS011;61495;53.400;7.608;2022-07-29T10:53:20;5.93;;;2.33;;
73266;SDS011;61495;53.400;7.608;2022-07-29T10:55:47;4.82;;;1.67;;
73266;SDS011;61495;53.400;7.608;2022-07-29T10:58:15;5.28;;;2.45;;
73266;SDS011;61495;53.400;7.608;2022-07-29T11:00:41;5.57;;;1.88;;
73266;SDS011;61495;53.400;7.608;2022-07-29T11:03:06;5.85;;;2.08;;
73266;SDS011;61495;53.400;7.608;2022-07-29T11:08:30;5.03;;;2.10;;
73266;SDS011;61495;53.400;7.608;2022-07-29T11:16:21;4.20;;;1.80;;
73266;SDS011;61495;53.400;7.608;2022-07-29T11:21:39;5.35;;;2.00;;
73266;SDS011;61495;53.400;7.608;2022-07-29T11:24:15;5.07;;;2.10;;
73266;SDS011;61495;53.400;7.608;2022-07-29T11:27:06;6.15;;;2.10;;
73266;SDS011;61495;53.400;7.608;2022-07-29T11:29:35;5.85;;;2.10;;
73266;SDS011;61495;53.400;7.608;2022-07-29T11:32:10;3.95;;;1.88;;
73266;SDS011;61495;53.400;7.608;2022-07-29T11:34:39;5.97;;;1.95;;
73266;SDS011;61495;53.400;7.608;2022-07-29T11:44:54;4.50;;;2.30;;
73266;SDS011;61495;53.400;7.608;2022-07-29T11:50:33;8.57;;;2.00;;
73266;SDS011;61495;53.400;7.608;2022-07-29T11:53:01;6.57;;;2.03;;
73266;SDS011;61495;53.400;7.608;2022-07-29T11:55:28;4.45;;;1.95;;
73266;SDS011;61495;53.400;7.608;2022-07-29T11:57:54;4.82;;;2.10;;
73266;SDS011;61495;53.400;7.608;2022-07-29T12:03:01;7.22;;;2.42;;
73266;SDS011;61495;53.400;7.608;2022-07-29T12:05:42;6.70;;;2.28;;
73266;SDS011;61495;53.400;7.608;2022-07-29T12:08:13;5.30;;;1.90;;
73266;SDS011;61495;53.400;7.608;2022-07-29T12:10:41;5.97;;;2.00;;
73266;SDS011;61495;53.400;7.608;2022-07-29T12:13:07;4.28;;;1.95;;
73266;SDS011;61495;53.400;7.608;2022-07-29T12:15:34;4.43;;;2.33;;
73266;SDS011;61495;53.400;7.608;2022-07-29T12:18:10;6.55;;;2.00;;
73266;SDS011;61495;53.400;7.608;2022-07-29T12:20:40;3.78;;;1.73;;
73266;SDS011;61495;53.400;7.608;2022-07-29T12:23:08;4.63;;;2.42;;
73266;SDS011;61495;53.400;7.608;2022-07-29T12:25:36;5.45;;;2.05;;
73266;SDS011;61495;53.400;7.608;2022-07-29T12:28:04;6.07;;;1.63;;
73266;SDS011;61495;53.400;7.608;2022-07-29T12:30:37;5.93;;;2.10;;
73266;SDS011;61495;53.400;7.608;2022-07-29T12:33:21;4.32;;;2.10;;
73266;SDS011;61495;53.400;7.608;2022-07-29T12:35:48;5.28;;;1.98;;
73266;SDS011;61495;53.400;7.608;2022-07-29T12:38:16;7.75;;;3.08;;
73266;SDS011;61495;53.400;7.608;2022-07-29T12:40:43;6.45;;;2.20;;
73266;SDS011;61495;53.400;7.608;2022-07-29T12:43:16;4.50;;;2.40;;
73266;SDS011;61495;53.400;7.608;2022-07-29T12:45:46;4.65;;;2.00;;
73266;SDS011;61495;53.400;7.608;2022-07-29T12:48:13;5.97;;;2.50;;
73266;SDS011;61495;53.400;7.608;2022-07-29T12:50:52;6.55;;;2.63;;
73266;SDS011;61495;53.400;7.608;2022-07-29T12:53:21;4.47;;;2.20;;
73266;SDS011;61495;53.400;7.608;2022-07-29T12:55:48;5.50;;;2.38;;
73266;SDS011;61495;53.400;7.608;2022-07-29T13:01:11;4.97;;;2.53;;
73266;SDS011;61495;53.400;7.608;2022-07-29T13:03:55;8.40;;;2.42;;
73266;SDS011;61495;53.400;7.608;2022-07-29T13:11:32;5.55;;;2.53;;
73266;SDS011;61495;53.400;7.608;2022-07-29T13:13:59;5.90;;;2.28;;
73266;SDS011;61495;53.400;7.608;2022-07-29T13:16:25;4.00;;;2.03;;
73266;SDS011;61495;53.400;7.608;2022-07-29T13:19:02;6.22;;;2.20;;
73266;SDS011;61495;53.400;7.608;2022-07-29T13:21:32;6.18;;;2.35;;
73266;SDS011;61495;53.400;7.608;2022-07-29T13:23:57;4.97;;;2.33;;
73266;SDS011;61495;53.400;7.608;2022-07-29T13:26:23;5.75;;;2.35;;
73266;SDS011;61495;53.400;7.608;2022-07-29T13:28:48;6.45;;;2.22;;
73266;SDS011;61495;53.400;7.608;2022-07-29T13:31:14;6.35;;;2.40;;
73266;SDS011;61495;53.400;7.608;2022-07-29T13:33:39;3.85;;;2.25;;
73266;SDS011;61495;53.400;7.608;2022-07-29T13:36:05;4.13;;;1.83;;
73266;SDS011;61495;53.400;7.608;2022-07-29T13:38:31;7.00;;;2.20;;
73266;SDS011;61495;53.400;7.608;2022-07-29T13:40:56;5.15;;;2.25;;
73266;SDS011;61495;53.400;7.608;2022-07-29T13:43:21;6.32;;;2.40;;
73266;SDS011;61495;53.400;7.608;2022-07-29T13:45:47;5.50;;;2.20;;
73266;SDS011;61495;53.400;7.608;2022-07-29T13:48:12;9.52;;;2.55;;
73266;SDS011;61495;53.400;7.608;2022-07-29T13:50:38;6.65;;;2.45;;
73266;SDS011;61495;53.400;7.608;2022-07-29T13:53:03;4.38;;;1.70;;
73266;SDS011;61495;53.400;7.608;2022-07-29T13:55:28;8.23;;;2.60;;
73266;SDS011;61495;53.400;7.608;2022-07-29T13:57:54;7.90;;;2.08;;
73266;SDS011;61495;53.400;7.608;2022-07-29T14:00:19;4.75;;;2.03;;
73266;SDS011;61495;53.400;7.608;2022-07-29T14:02:45;6.20;;;2.72;;
73266;SDS011;61495;53.400;7.608;2022-07-29T14:05:10;5.22;;;1.90;;
73266;SDS011;61495;53.400;7.608;2022-07-29T14:07:36;6.05;;;2.17;;
73266;SDS011;61495;53.400;7.608;2022-07-29T14:10:04;5.70;;;2.33;;
73266;SDS011;61495;53.400;7.608;2022-07-29T14:12:30;5.13;;;2.20;;
73266;SDS011;61495;53.400;7.608;2022-07-29T14:14:55;4.28;;;2.28;;
73266;SDS011;61495;53.400;7.608;2022-07-29T14:17:21;5.47;;;2.25;;
73266;SDS011;61495;53.400;7.608;2022-07-29T14:19:46;4.43;;;2.05;;
73266;SDS011;61495;53.400;7.608;2022-07-29T14:22:12;5.63;;;2.00;;
73266;SDS011;61495;53.400;7.608;2022-07-29T14:24:37;4.82;;;1.83;;
73266;SDS011;61495;53.400;7.608;2022-07-29T14:27:03;4.85;;;2.00;;
73266;SDS011;61495;53.400;7.608;2022-07-29T14:29:29;7.50;;;2.00;;
73266;SDS011;61495;53.400;7.608;2022-07-29T14:31:54;4.47;;;2.20;;
73266;SDS011;61495;53.400;7.608;2022-07-29T14:34:20;4.95;;;2.35;;
73266;SDS011;61495;53.400;7.608;2022-07-29T14:36:45;4.93;;;2.20;;
73266;SDS011;61495;53.400;7.608;2022-07-29T14:39:10;5.85;;;2.75;;
73266;SDS011;61495;53.400;7.608;2022-07-29T14:41:36;8.45;;;2.20;;
73266;SDS011;61495;53.400;7.608;2022-07-29T14:44:01;5.43;;;2.35;;
73266;SDS011;61495;53.400;7.608;2022-07-29T14:46:27;5.00;;;2.05;;
73266;SDS011;61495;53.400;7.608;2022-07-29T14:48:56;5.43;;;2.40;;
73266;SDS011;61495;53.400;7.608;2022-07-29T14:51:21;6.35;;;2.25;;
73266;SDS011;61495;53.400;7.608;2022-07-29T14:53:47;5.00;;;2.00;;
73266;SDS011;61495;53.400;7.608;2022-07-29T14:56:12;4.68;;;2.42;;
73266;SDS011;61495;53.400;7.608;2022-07-29T14:58:37;4.88;;;2.22;;
73266;SDS011;61495;53.400;7.608;2022-07-29T15:01:03;4.53;;;1.95;;
73266;SDS011;61495;53.400;7.608;2022-07-29T15:03:28;5.55;;;2.28;;
73266;SDS011;61495;53.400;7.608;2022-07-29T15:05:54;3.92;;;1.90;;
73266;SDS011;61495;53.400;7.608;2022-07-29T15:08:20;6.10;;;2.33;;
73266;SDS011;61495;53.400;7.608;2022-07-29T15:10:45;5.28;;;2.30;;
73266;SDS011;61495;53.400;7.608;2022-07-29T15:13:11;4.57;;;2.80;;
73266;SDS011;61495;53.400;7.608;2022-07-29T15:15:36;5.85;;;2.47;;
73266;SDS011;61495;53.400;7.608;2022-07-29T15:18:02;5.95;;;2.92;;
73266;SDS011;61495;53.400;7.608;2022-07-29T15:20:27;5.97;;;2.78;;
73266;SDS011;61495;53.400;7.608;2022-07-29T15:22:53;5.30;;;2.05;;
73266;SDS011;61495;53.400;7.608;2022-07-29T15:25:20;5.47;;;3.60;;
73266;SDS011;61495;53.400;7.608;2022-07-29T15:27:46;5.03;;;2.83;;
73266;SDS011;61495;53.400;7.608;2022-07-29T15:30:12;5.47;;;2.08;;
73266;SDS011;61495;53.400;7.608;2022-07-29T15:32:37;6.28;;;2.35;;
73266;SDS011;61495;53.400;7.608;2022-07-29T15:35:03;5.57;;;2.50;;
73266;SDS011;61495;53.400;7.608;2022-07-29T15:37:28;5.65;;;2.53;;
73266;SDS011;61495;53.400;7.608;2022-07-29T15:39:54;5.43;;;2.40;;
73266;SDS011;61495;53.400;7.608;2022-07-29T15:42:19;5.40;;;2.47;;
73266;SDS011;61495;53.400;7.608;2022-07-29T15:44:45;4.80;;;2.47;;
73266;SDS011;61495;53.400;7.608;2022-07-29T15:47:10;6.30;;;2.60;;
73266;SDS011;61495;53.400;7.608;2022-07-29T15:49:36;5.22;;;2.42;;
73266;SDS011;61495;53.400;7.608;2022-07-29T15:52:04;5.30;;;2.15;;
73266;SDS011;61495;53.400;7.608;2022-07-29T15:54:32;5.05;;;2.33;;
73266;SDS011;61495;53.400;7.608;2022-07-29T15:56:59;5.18;;;2.47;;